Time;durP1;ratioP1;P1;durP2;ratioP2;P2;SDS_P1;SDS_P2;PMS_P1;PMS_P2;Temp;Humidity;BMP_temperature;BMP_pressure;BME280_temperature;BME280_humidity;BME280_pressure;Samples;Min_cycle;Max_cycle;Signal;HPM_P1;HPM_P2
2023/10/16 00:02:22;;;;;;;1.65;0.30;;;26.80;40.50;;;;;;4996053;28;20363;-67
2023/10/16 00:04:52;;;;;;;0.35;0.20;;;27.40;39.60;;;;;;5004752;28;20064;-66
2023/10/16 00:07:22;;;;;;;0.35;0.08;;;28.00;39.20;;;;;;5001007;28;20026;-66
2023/10/16 00:09:54;;;;;;;0.75;0.10;;;27.50;39.50;;;;;;5008345;28;20041;-65
2023/10/16 00:12:22;;;;;;;0.65;0.00;;;26.80;41.00;;;;;;4997082;28;20097;-66
2023/10/16 00:14:50;;;;;;;0.28;0.20;;;26.50;40.50;;;;;;4996806;28;20557;-67
2023/10/16 00:17:21;;;;;;;0.15;0.10;;;26.50;40.40;;;;;;5004668;28;20083;-67
2023/10/16 00:19:48;;;;;;;2.45;0.25;;;26.90;40.20;;;;;;4991603;28;20038;-66
2023/10/16 00:22:18;;;;;;;0.38;0.10;;;27.10;39.50;;;;;;4994708;28;20052;-65
2023/10/16 00:24:46;;;;;;;0.40;0.10;;;26.40;39.40;;;;;;5005335;28;20030;-65
2023/10/16 00:27:17;;;;;;;1.20;0.32;;;26.30;40.00;;;;;;5005609;28;20022;-66
2023/10/16 00:29:45;;;;;;;0.00;0.00;;;25.90;40.10;;;;;;5010904;28;20109;-66
2023/10/16 00:32:13;;;;;;;2.83;0.10;;;26.00;40.80;;;;;;5007941;28;20406;-66
2023/10/16 00:34:40;;;;;;;0.55;0.10;;;26.50;39.60;;;;;;4995470;28;20136;-66
2023/10/16 00:37:07;;;;;;;0.30;0.15;;;26.80;39.30;;;;;;5003731;28;20038;-66
2023/10/16 00:39:36;;;;;;;2.95;0.32;;;26.90;39.40;;;;;;5000264;28;20018;-67
2023/10/16 00:42:08;;;;;;;0.75;0.28;;;27.20;39.90;;;;;;4998033;28;20381;-66
2023/10/16 00:44:35;;;;;;;0.40;0.20;;;26.80;39.20;;;;;;5009912;28;20125;-66
2023/10/16 00:47:09;;;;;;;0.82;0.20;;;26.70;39.40;;;;;;5011235;28;20414;-66
2023/10/16 00:49:38;;;;;;;0.73;0.25;;;27.00;38.70;;;;;;5014827;28;20208;-66
2023/10/16 00:52:06;;;;;;;1.15;0.20;;;26.40;39.50;;;;;;5014497;28;20486;-67
2023/10/16 00:54:39;;;;;;;0.80;0.13;;;26.60;39.80;;;;;;4987383;28;20081;-67
2023/10/16 00:57:08;;;;;;;1.02;0.20;;;26.60;39.00;;;;;;5011292;28;20029;-67
2023/10/16 00:59:35;;;;;;;0.25;0.10;;;26.70;39.40;;;;;;4995023;28;20042;-66
2023/10/16 01:02:14;;;;;;;1.58;0.15;;;27.20;38.30;;;;;;4998137;28;20037;-67
2023/10/16 01:04:42;;;;;;;0.38;0.10;;;27.60;38.40;;;;;;4994900;28;20026;-66
2023/10/16 01:07:14;;;;;;;1.73;0.13;;;28.10;37.70;;;;;;5009892;28;20042;-67
2023/10/16 01:09:42;;;;;;;0.30;0.20;;;27.90;37.50;;;;;;5005189;28;20121;-66
2023/10/16 01:12:12;;;;;;;0.80;0.20;;;27.40;38.00;;;;;;4996639;28;20473;-66
2023/10/16 01:14:40;;;;;;;0.38;0.10;;;27.20;38.20;;;;;;5004873;28;20062;-66
2023/10/16 01:17:12;;;;;;;2.33;0.30;;;27.30;38.40;;;;;;4993727;28;20109;-66
2023/10/16 01:19:44;;;;;;;1.83;0.20;;;26.60;38.90;;;;;;4995587;28;20076;-68
2023/10/16 01:22:13;;;;;;;1.45;0.20;;;26.30;39.00;;;;;;4997555;28;20112;-65
2023/10/16 01:24:44;;;;;;;1.33;0.30;;;26.50;38.90;;;;;;4994941;28;20030;-65
2023/10/16 01:27:26;;;;;;;0.22;0.10;;;26.80;38.80;;;;;;4993346;28;20042;-66
2023/10/16 01:29:53;;;;;;;1.83;0.20;;;27.60;37.90;;;;;;4999781;28;20042;-65
2023/10/16 01:32:21;;;;;;;1.35;0.20;;;27.40;36.80;;;;;;4997807;28;20041;-65
2023/10/16 01:34:50;;;;;;;0.47;0.30;;;27.20;37.80;;;;;;4994432;28;20036;-66
2023/10/16 01:37:18;;;;;;;2.22;0.25;;;27.20;37.80;;;;;;4999471;28;20383;-66
2023/10/16 01:39:49;;;;;;;1.13;0.28;;;27.00;38.00;;;;;;4995930;28;20029;-67
2023/10/16 01:42:18;;;;;;;1.45;0.30;;;27.80;38.00;;;;;;5013675;28;20117;-67
2023/10/16 01:44:46;;;;;;;1.27;0.25;;;28.40;36.10;;;;;;5013866;28;20467;-67
2023/10/16 01:47:16;;;;;;;0.30;0.20;;;28.40;36.00;;;;;;5003516;28;20418;-67
2023/10/16 01:49:48;;;;;;;1.00;0.20;;;29.00;36.50;;;;;;5000167;28;20120;-67
2023/10/16 01:52:15;;;;;;;3.50;0.20;;;28.50;35.40;;;;;;4996098;28;20061;-66
2023/10/16 01:54:46;;;;;;;3.17;0.30;;;28.00;36.40;;;;;;5002068;28;20033;-66
2023/10/16 01:57:14;;;;;;;2.30;0.20;;;28.20;36.10;;;;;;4996290;28;20026;-66
2023/10/16 01:59:43;;;;;;;2.67;0.30;;;27.70;36.00;;;;;;4991864;28;20063;-66
2023/10/16 02:02:12;;;;;;;0.15;0.13;;;27.30;36.10;;;;;;4994422;28;20038;-67
2023/10/16 02:04:40;;;;;;;5.22;0.25;;;27.30;36.00;;;;;;4999858;28;20386;-68
2023/10/16 02:07:17;;;;;;;4.85;0.57;;;26.90;36.40;;;;;;4994493;28;20107;-68
2023/10/16 02:09:45;;;;;;;1.80;0.33;;;26.50;36.00;;;;;;5001583;28;20030;-67
2023/10/16 02:12:16;;;;;;;0.47;0.20;;;26.30;36.60;;;;;;4994784;28;20383;-68
2023/10/16 02:14:46;;;;;;;0.75;0.20;;;26.20;37.10;;;;;;5005980;28;20018;-67
2023/10/16 02:17:24;;;;;;;0.30;0.22;;;26.30;37.20;;;;;;4998481;28;21770;-67
2023/10/16 02:19:52;;;;;;;4.22;0.63;;;26.70;37.00;;;;;;5008803;28;20489;-67
2023/10/16 02:22:22;;;;;;;1.50;0.40;;;27.10;36.20;;;;;;5005294;28;20072;-67
2023/10/16 02:24:50;;;;;;;3.08;0.30;;;26.80;35.10;;;;;;5010033;28;20045;-68
2023/10/16 02:27:20;;;;;;;0.98;0.40;;;26.60;34.60;;;;;;5004406;28;20549;-66
2023/10/16 02:29:51;;;;;;;2.88;0.30;;;26.40;33.80;;;;;;5006583;28;20132;-67
2023/10/16 02:32:22;;;;;;;0.60;0.20;;;26.20;34.90;;;;;;4998728;28;20026;-65
2023/10/16 02:34:50;;;;;;;0.45;0.20;;;26.20;34.70;;;;;;4991982;28;20046;-67
2023/10/16 02:37:17;;;;;;;0.85;0.22;;;25.90;35.50;;;;;;4993368;28;20026;-67
2023/10/16 02:39:50;;;;;;;1.70;0.25;;;26.20;36.20;;;;;;4998431;28;20030;-67
2023/10/16 02:42:18;;;;;;;2.95;0.52;;;26.30;35.80;;;;;;5001016;28;20034;-66
2023/10/16 02:44:45;;;;;;;1.05;0.22;;;27.00;35.00;;;;;;4997692;28;20131;-67
2023/10/16 02:47:13;;;;;;;4.30;0.30;;;27.00;34.50;;;;;;5002090;28;20045;-66
2023/10/16 02:49:47;;;;;;;0.20;0.20;;;27.00;35.00;;;;;;5009037;28;20112;-67
2023/10/16 02:52:16;;;;;;;0.85;0.20;;;27.50;33.80;;;;;;4986059;28;20031;-67
2023/10/16 02:54:47;;;;;;;2.72;0.22;;;27.70;33.30;;;;;;5007942;28;20025;-67
2023/10/16 02:57:15;;;;;;;5.68;0.52;;;27.80;32.60;;;;;;5006871;28;20081;-67
2023/10/16 02:59:46;;;;;;;0.50;0.20;;;27.70;33.50;;;;;;4997691;28;20145;-68
2023/10/16 03:02:23;;;;;;;0.47;0.35;;;27.90;33.30;;;;;;4998892;28;20026;-67
2023/10/16 03:05:05;;;;;;;0.63;0.20;;;27.90;32.10;;;;;;5007567;28;20061;-68
2023/10/16 03:07:34;;;;;;;5.07;0.30;;;28.00;32.10;;;;;;4998730;28;20062;-68
2023/10/16 03:10:02;;;;;;;0.65;0.10;;;28.30;33.00;;;;;;5004508;28;20052;-68
2023/10/16 03:12:29;;;;;;;1.90;0.20;;;28.30;31.40;;;;;;4983478;28;20460;-68
2023/10/16 03:14:58;;;;;;;2.50;0.38;;;28.20;32.10;;;;;;4993801;28;20120;-68
2023/10/16 03:19:58;;;;;;;2.38;0.40;;;28.10;32.00;;;;;;4997934;28;20690;-68
2023/10/16 03:22:26;;;;;;;2.42;0.20;;;28.20;32.40;;;;;;5003902;28;20041;-68
2023/10/16 03:24:55;;;;;;;0.80;0.20;;;27.90;31.70;;;;;;5001789;28;20048;-67
2023/10/16 03:27:32;;;;;;;0.80;0.38;;;26.90;33.10;;;;;;5011071;28;20026;-68
2023/10/16 03:29:59;;;;;;;0.38;0.17;;;26.60;33.60;;;;;;5001708;28;20121;-68
2023/10/16 03:32:28;;;;;;;0.10;0.10;;;26.30;33.90;;;;;;4990558;28;20065;-66
2023/10/16 03:35:05;;;;;;;2.78;0.30;;;26.00;33.70;;;;;;4995272;28;20018;-67
2023/10/16 03:37:35;;;;;;;2.45;0.80;;;25.80;34.70;;;;;;5011743;28;20069;-67
2023/10/16 03:40:11;;;;;;;6.20;0.32;;;25.80;35.00;;;;;;5009959;28;20048;-67
2023/10/16 03:42:43;;;;;;;2.30;0.30;;;26.30;35.10;;;;;;5008276;28;20030;-67
2023/10/16 03:45:13;;;;;;;2.42;0.25;;;27.20;34.60;;;;;;5007641;28;20088;-67
2023/10/16 03:47:41;;;;;;;1.17;0.15;;;27.80;36.00;;;;;;5005158;28;20462;-68
2023/10/16 03:50:10;;;;;;;2.53;0.15;;;27.70;36.10;;;;;;4991814;28;20030;-67
2023/10/16 03:52:38;;;;;;;2.33;0.13;;;27.00;37.10;;;;;;4999994;28;20087;-67
2023/10/16 03:57:53;;;;;;;3.00;0.15;;;26.10;38.50;;;;;;5001243;28;20060;-67
2023/10/16 04:00:33;;;;;;;0.40;0.10;;;25.60;39.40;;;;;;5011217;28;20049;-67
2023/10/16 04:03:01;;;;;;;3.53;0.32;;;24.80;38.40;;;;;;5001633;28;20065;-67
2023/10/16 04:05:33;;;;;;;2.97;0.30;;;24.40;41.40;;;;;;4995371;28;20130;-67
2023/10/16 04:08:01;;;;;;;2.25;0.30;;;23.80;44.80;;;;;;5005045;28;20037;-67
2023/10/16 04:10:28;;;;;;;1.40;0.15;;;23.30;43.00;;;;;;4992181;28;20034;-67
2023/10/16 04:12:57;;;;;;;0.57;0.10;;;23.10;42.30;;;;;;4991168;28;20026;-67
2023/10/16 04:31:55;;;;;;;18.77;2.15;;;22.80;46.00;;;;;;4998007;28;20325;-66
2023/10/16 04:34:31;;;;;;;5.20;0.20;;;21.80;51.10;;;;;;4996725;28;20391;-67
2023/10/16 05:16:49;;;;;;;3.90;0.30;;;18.80;56.70;;;;;;4994265;28;20045;-67
2023/10/16 06:14:45;;;;;;;0.57;0.20;;;19.00;50.50;;;;;;5003717;28;20092;-68
2023/10/16 06:17:19;;;;;;;1.20;0.10;;;19.20;49.70;;;;;;5001418;28;20582;-68
2023/10/16 06:19:47;;;;;;;1.33;0.20;;;19.50;49.40;;;;;;4997835;28;20058;-68
2023/10/16 06:22:15;;;;;;;0.32;0.10;;;20.00;48.70;;;;;;4985079;28;20092;-68
2023/10/16 06:24:44;;;;;;;0.80;0.10;;;20.40;47.20;;;;;;4998145;28;20030;-68
2023/10/16 06:27:18;;;;;;;0.40;0.13;;;20.40;47.30;;;;;;5006032;28;20046;-68
2023/10/16 06:29:51;;;;;;;0.10;0.10;;;20.50;46.80;;;;;;5002097;28;20121;-68
2023/10/16 06:32:19;;;;;;;2.55;0.20;;;20.70;47.70;;;;;;5000490;28;20030;-67
2023/10/16 06:34:50;;;;;;;0.60;0.20;;;20.60;46.80;;;;;;4990895;28;20034;-68
2023/10/16 06:37:18;;;;;;;0.88;0.10;;;20.60;47.30;;;;;;5004876;28;20077;-68
2023/10/16 06:39:46;;;;;;;0.95;0.20;;;20.80;47.30;;;;;;4997849;28;20037;-68
2023/10/16 06:42:20;;;;;;;0.55;0.15;;;20.80;46.70;;;;;;4996486;28;20154;-67
2023/10/16 06:44:53;;;;;;;2.00;0.30;;;20.60;46.40;;;;;;4980310;28;20057;-67
2023/10/16 06:47:47;;;;;;;0.00;0.00;;;20.60;47.00;;;;;;4999099;28;20045;-67
2023/10/16 06:53:02;;;;;;;0.50;0.20;;;20.60;45.40;;;;;;5006845;28;20034;-67
2023/10/16 06:55:30;;;;;;;0.77;0.10;;;20.50;45.50;;;;;;5005363;28;20030;-67
2023/10/16 06:57:57;;;;;;;0.77;0.10;;;20.50;45.00;;;;;;4995295;28;20038;-67
2023/10/16 07:00:26;;;;;;;2.10;0.20;;;20.40;45.30;;;;;;4994222;28;20028;-69
2023/10/16 07:02:55;;;;;;;1.08;0.20;;;20.40;45.30;;;;;;4995753;28;20038;-69
2023/10/16 07:05:48;;;;;;;1.83;0.20;;;20.40;45.20;;;;;;4999563;28;20042;-68
2023/10/16 07:08:19;;;;;;;0.55;0.10;;;20.40;44.50;;;;;;4999439;28;20401;-67
2023/10/16 07:10:51;;;;;;;2.17;0.20;;;20.30;44.60;;;;;;4999360;28;20172;-67
2023/10/16 07:13:30;;;;;;;0.73;0.10;;;20.20;44.70;;;;;;4990547;28;20041;-70
2023/10/16 07:16:03;;;;;;;2.40;0.40;;;20.10;45.00;;;;;;4993884;28;20049;-67
2023/10/16 07:18:33;;;;;;;0.63;0.10;;;20.10;45.40;;;;;;4979480;28;20041;-68
2023/10/16 07:23:35;;;;;;;0.30;0.10;;;20.20;44.70;;;;;;4996414;28;20034;-67
2023/10/16 07:26:09;;;;;;;0.88;0.10;;;20.10;45.40;;;;;;5001631;28;20042;-66
2023/10/16 07:28:41;;;;;;;0.80;0.28;;;20.00;44.90;;;;;;5009515;28;20029;-67
2023/10/16 07:31:12;;;;;;;0.60;0.10;;;20.00;45.40;;;;;;4999294;28;20032;-66
2023/10/16 07:33:43;;;;;;;0.28;0.10;;;19.90;45.50;;;;;;5004054;28;20471;-67
2023/10/16 07:36:13;;;;;;;1.55;0.30;;;19.80;45.20;;;;;;4989679;28;20046;-67
2023/10/16 07:38:41;;;;;;;0.77;0.17;;;19.90;45.40;;;;;;5002381;28;20038;-67
2023/10/16 07:41:13;;;;;;;1.20;0.20;;;19.80;45.40;;;;;;5009023;28;20022;-67
2023/10/16 07:43:45;;;;;;;0.20;0.10;;;19.80;45.10;;;;;;5002787;28;20026;-67
2023/10/16 07:48:50;;;;;;;0.80;0.13;;;19.80;44.60;;;;;;5007059;28;20030;-67
2023/10/16 07:51:20;;;;;;;0.60;0.20;;;19.90;44.60;;;;;;4976609;28;20061;-67
2023/10/16 07:53:49;;;;;;;0.63;0.30;;;19.80;44.30;;;;;;5000851;28;20057;-66
2023/10/16 07:56:35;;;;;;;1.35;0.20;;;19.80;44.90;;;;;;5008176;28;20034;-67
2023/10/16 07:59:09;;;;;;;1.52;0.25;;;19.60;44.70;;;;;;4992191;28;20633;-67
2023/10/16 08:01:57;;;;;;;1.67;0.50;;;19.60;45.00;;;;;;4998467;28;20080;-67
2023/10/16 08:07:04;;;;;;;1.08;0.20;;;19.50;45.50;;;;;;5006574;28;20038;-68
2023/10/16 08:14:47;;;;;;;1.83;0.30;;;19.40;45.70;;;;;;4999786;28;20041;-67
2023/10/16 08:17:17;;;;;;;1.40;0.30;;;19.40;45.50;;;;;;4992208;28;20077;-68
2023/10/16 08:19:49;;;;;;;1.85;0.38;;;19.30;43.80;;;;;;4979348;28;20057;-68
2023/10/16 08:22:17;;;;;;;1.33;0.20;;;19.30;44.80;;;;;;4977247;28;20062;-69
2023/10/16 08:25:00;;;;;;;3.17;0.25;;;19.50;44.90;;;;;;4985331;28;20033;-68
2023/10/16 08:31:22;;;;;;;2.42;0.35;;;19.70;42.70;;;;;;5003016;28;20037;-67
2023/10/16 08:33:07;;;;;;;1.67;0.35;;;19.40;42.90;;;;;;5002946;28;20180;-65
2023/10/16 08:35:41;;;;;;;5.18;0.20;;;19.00;46.50;;;;;;4998643;28;20060;-66
2023/10/16 08:38:51;;;;;;;3.60;0.40;;;18.00;50.60;;;;;;4999214;28;20030;-66
2023/10/16 08:41:14;;;;;;;3.53;0.30;;;17.10;55.50;;;;;;4995037;28;20045;-66
2023/10/16 08:43:54;;;;;;;4.15;0.40;;;16.40;61.30;;;;;;5012030;28;20045;-66
2023/10/16 08:46:44;;;;;;;1.80;0.63;;;15.80;65.40;;;;;;4995487;28;20485;-66
2023/10/16 08:49:12;;;;;;;1.25;0.30;;;15.30;68.70;;;;;;5010255;28;20033;-66
2023/10/16 08:51:40;;;;;;;1.27;0.20;;;15.00;71.00;;;;;;5011798;28;20467;-67
2023/10/16 08:54:35;;;;;;;0.75;0.20;;;14.80;72.10;;;;;;5003099;28;20030;-65
2023/10/16 08:56:56;;;;;;;0.47;0.20;;;14.80;72.60;;;;;;5003243;28;20061;-67
2023/10/16 08:59:26;;;;;;;0.80;0.15;;;14.70;72.90;;;;;;4998301;28;20496;-66
2023/10/16 09:01:55;;;;;;;1.05;0.13;;;14.60;73.10;;;;;;5015650;28;20467;-66
2023/10/16 09:04:27;;;;;;;0.70;0.15;;;14.50;73.70;;;;;;4997308;28;20125;-67
2023/10/16 09:06:55;;;;;;;1.10;0.20;;;14.70;73.90;;;;;;4993767;28;20054;-66
2023/10/16 09:09:25;;;;;;;0.85;0.20;;;14.60;74.00;;;;;;4996011;28;20104;-68
2023/10/16 09:12:04;;;;;;;2.67;0.20;;;14.70;74.50;;;;;;4996724;28;20121;-67
2023/10/16 09:14:32;;;;;;;1.05;0.30;;;14.80;74.10;;;;;;4999439;28;20026;-67
2023/10/16 09:17:00;;;;;;;0.85;0.10;;;14.90;73.80;;;;;;4999815;28;20029;-67
2023/10/16 09:19:34;;;;;;;3.05;0.40;;;14.90;73.70;;;;;;5010250;28;20054;-67
2023/10/16 09:22:08;;;;;;;0.45;0.10;;;14.90;73.40;;;;;;5014407;28;20036;-68
2023/10/16 09:24:38;;;;;;;1.17;0.30;;;14.80;73.60;;;;;;4996232;28;20033;-67
2023/10/16 09:30:14;;;;;;;1.73;0.40;;;14.80;73.60;;;;;;4962902;28;20108;-67
2023/10/16 09:32:42;;;;;;;0.68;0.20;;;14.70;74.00;;;;;;5002475;28;20368;-66
2023/10/16 09:35:13;;;;;;;0.40;0.20;;;14.80;74.00;;;;;;5013562;28;20142;-66
2023/10/16 09:37:47;;;;;;;0.63;0.30;;;14.80;74.10;;;;;;5013854;28;20053;-67
2023/10/16 09:43:05;;;;;;;0.93;0.32;;;14.70;74.40;;;;;;4996302;28;20059;-67
2023/10/16 09:45:36;;;;;;;0.70;0.30;;;14.50;74.70;;;;;;4981511;28;20495;-67
2023/10/16 09:48:19;;;;;;;0.65;0.10;;;14.60;75.00;;;;;;4996518;28;20062;-67
2023/10/16 09:50:47;;;;;;;2.08;0.40;;;14.70;75.10;;;;;;4994926;28;20022;-67
2023/10/16 09:53:17;;;;;;;0.98;0.28;;;14.70;75.00;;;;;;5014594;28;20025;-67
2023/10/16 09:55:48;;;;;;;0.10;0.10;;;14.70;75.30;;;;;;5012005;28;20065;-67
2023/10/16 09:58:18;;;;;;;0.28;0.20;;;14.80;75.30;;;;;;4997735;28;20038;-67
2023/10/16 10:00:48;;;;;;;0.28;0.10;;;15.00;74.60;;;;;;4995188;28;20029;-67
2023/10/16 10:03:17;;;;;;;0.32;0.20;;;14.80;74.80;;;;;;5012745;28;20033;-67
2023/10/16 10:06:50;;;;;;;2.20;0.20;;;15.00;74.50;;;;;;5002285;28;20069;-67
2023/10/16 10:09:22;;;;;;;0.10;0.08;;;14.90;74.50;;;;;;5004946;28;20452;-67
2023/10/16 10:11:47;;;;;;;0.47;0.10;;;14.80;75.20;;;;;;5013586;28;20041;-67
2023/10/16 10:15:01;;;;;;;2.17;0.10;;;14.80;75.30;;;;;;5012128;28;20037;-67
2023/10/16 10:17:25;;;;;;;1.02;0.30;;;14.70;75.60;;;;;;5010931;28;20047;-67
2023/10/16 10:20:08;;;;;;;0.95;0.20;;;14.70;76.00;;;;;;4999251;28;20038;-67
2023/10/16 10:22:37;;;;;;;2.47;0.30;;;14.70;75.50;;;;;;5002391;28;20120;-67
2023/10/16 10:25:42;;;;;;;0.52;0.20;;;14.60;75.90;;;;;;4998535;28;20498;-67
2023/10/16 10:28:29;;;;;;;1.02;0.20;;;14.40;76.00;;;;;;5001587;28;20509;-67
2023/10/16 10:31:06;;;;;;;0.10;0.10;;;14.40;76.80;;;;;;5014168;28;20022;-67
2023/10/16 10:33:42;;;;;;;0.75;0.10;;;14.20;77.00;;;;;;5003487;28;20053;-67
2023/10/16 10:36:27;;;;;;;0.30;0.10;;;14.20;77.70;;;;;;5003318;28;20044;-67
2023/10/16 10:39:23;;;;;;;2.10;0.45;;;14.20;77.90;;;;;;5012519;28;20017;-67
2023/10/16 10:41:51;;;;;;;1.90;0.25;;;14.10;77.80;;;;;;4994559;28;20061;-68
2023/10/16 10:44:19;;;;;;;0.93;0.50;;;14.00;78.50;;;;;;4976949;28;20391;-67
2023/10/16 10:46:53;;;;;;;0.50;0.17;;;13.90;79.10;;;;;;4994323;28;20244;-67
2023/10/16 10:49:33;;;;;;;0.38;0.20;;;13.80;79.80;;;;;;4995059;28;20034;-67
2023/10/16 10:52:07;;;;;;;0.43;0.20;;;13.80;80.10;;;;;;4994140;28;20022;-68
2023/10/16 10:54:35;;;;;;;0.40;0.10;;;13.80;80.50;;;;;;5013107;28;20062;-68
2023/10/16 10:57:09;;;;;;;1.38;0.25;;;14.00;80.10;;;;;;4994817;28;20026;-68
2023/10/16 10:59:41;;;;;;;1.85;0.30;;;14.00;80.40;;;;;;5004722;28;20058;-68
2023/10/16 11:04:59;;;;;;;;;;;14.00;80.10;;;;;;4996133;28;20124;-68
2023/10/16 11:07:39;;;;;;;1.25;0.28;;;14.00;80.40;;;;;;4994282;28;19914;-69
2023/10/16 11:10:08;;;;;;;4.10;0.40;;;14.00;80.60;;;;;;5003400;28;20592;-68
2023/10/16 11:13:21;;;;;;;2.72;0.40;;;14.10;80.70;;;;;;4998434;28;20046;-68
2023/10/16 11:15:54;;;;;;;3.00;0.20;;;14.10;80.30;;;;;;4992234;28;20045;-67
2023/10/16 11:18:26;;;;;;;1.17;0.25;;;14.00;80.20;;;;;;5000262;28;20025;-68
2023/10/16 11:21:27;;;;;;;0.82;0.20;;;14.00;80.20;;;;;;4998935;28;20472;-68
2023/10/16 11:23:47;;;;;;;1.52;0.20;;;14.00;79.80;;;;;;4990272;28;20509;-68
2023/10/16 11:26:16;;;;;;;1.65;0.30;;;14.00;79.80;;;;;;4994142;28;20045;-67
2023/10/16 11:28:48;;;;;;;0.57;0.30;;;13.90;79.80;;;;;;4998426;28;20442;-68
2023/10/16 11:31:18;;;;;;;1.55;0.35;;;13.90;79.90;;;;;;5001129;28;20459;-68
2023/10/16 11:36:40;;;;;;;2.85;0.30;;;13.70;80.20;;;;;;5000601;28;20041;-68
2023/10/16 11:39:08;;;;;;;0.75;0.30;;;13.70;80.50;;;;;;4997315;28;20121;-68
2023/10/16 11:41:36;;;;;;;1.67;0.20;;;13.60;80.70;;;;;;4997569;28;20030;-69
2023/10/16 11:44:16;;;;;;;2.05;0.40;;;13.50;81.40;;;;;;5002326;28;20372;-68
2023/10/16 11:46:46;;;;;;;0.65;0.30;;;13.40;81.80;;;;;;4994925;28;20088;-68
2023/10/16 11:51:45;;;;;;;0.85;0.30;;;13.30;82.50;;;;;;4999006;28;20026;-68
2023/10/16 11:54:19;;;;;;;5.93;0.52;;;13.20;82.60;;;;;;4995806;28;20030;-68
2023/10/16 11:56:56;;;;;;;4.65;0.65;;;13.20;82.90;;;;;;4991898;28;20118;-68
2023/10/16 11:59:28;;;;;;;0.47;0.30;;;13.20;82.90;;;;;;4996268;28;20444;-68
2023/10/16 12:02:10;;;;;;;1.10;0.10;;;13.20;83.00;;;;;;4999631;28;20440;-67
2023/10/16 12:04:42;;;;;;;3.60;0.28;;;13.20;83.20;;;;;;5007564;28;20025;-68
2023/10/16 12:07:13;;;;;;;0.95;0.50;;;13.20;83.30;;;;;;4985058;28;20667;-66
2023/10/16 12:09:42;;;;;;;2.78;0.32;;;13.10;83.50;;;;;;4994661;28;20080;-67
2023/10/16 12:12:24;;;;;;;2.45;0.32;;;13.20;83.60;;;;;;4995379;28;20041;-68
2023/10/16 12:14:52;;;;;;;1.00;0.45;;;13.20;82.90;;;;;;5005811;28;20021;-68
2023/10/16 12:17:20;;;;;;;3.10;0.35;;;13.10;83.60;;;;;;5000076;28;20018;-68
2023/10/16 12:19:48;;;;;;;2.22;0.30;;;13.10;84.30;;;;;;4997459;28;20146;-68
2023/10/16 12:22:15;;;;;;;1.55;0.50;;;13.10;84.30;;;;;;5006181;28;20696;-67
2023/10/16 12:24:43;;;;;;;1.02;0.30;;;13.00;84.60;;;;;;5011303;28;20087;-67
2023/10/16 12:27:15;;;;;;;1.60;0.50;;;13.00;85.20;;;;;;4997349;28;20037;-67
2023/10/16 12:29:44;;;;;;;1.83;0.50;;;13.10;84.40;;;;;;5008015;28;20022;-67
2023/10/16 12:32:12;;;;;;;2.83;0.40;;;13.00;84.80;;;;;;5012239;28;20375;-67
2023/10/16 12:34:41;;;;;;;1.63;0.32;;;13.00;85.30;;;;;;5006067;28;20030;-66
2023/10/16 12:37:08;;;;;;;2.53;0.32;;;13.20;84.50;;;;;;5003275;28;20022;-67
2023/10/16 12:39:45;;;;;;;4.40;0.45;;;13.10;84.30;;;;;;5002183;28;20030;-66
2023/10/16 12:42:13;;;;;;;6.07;0.45;;;13.00;84.40;;;;;;5012212;28;20191;-67
2023/10/16 12:44:40;;;;;;;1.08;0.22;;;13.10;84.60;;;;;;5011245;28;20045;-67
2023/10/16 12:47:08;;;;;;;1.10;0.20;;;13.00;83.90;;;;;;5005601;28;20044;-67
2023/10/16 12:49:35;;;;;;;2.35;0.20;;;13.00;83.40;;;;;;4999574;28;20018;-67
2023/10/16 12:52:02;;;;;;;;;;;13.00;82.70;;;;;;5004552;28;20463;-67
2023/10/16 12:54:30;;;;;;;0.90;0.30;;;13.00;82.40;;;;;;4984555;28;19932;-67
2023/10/16 12:57:02;;;;;;;1.02;0.20;;;13.00;82.90;;;;;;4977458;28;20446;-67
2023/10/16 12:59:30;;;;;;;0.68;0.10;;;13.00;82.60;;;;;;5000012;28;20042;-68
2023/10/16 13:01:59;;;;;;;2.70;0.40;;;12.90;82.60;;;;;;4997923;28;20030;-68
2023/10/16 13:04:28;;;;;;;2.45;0.30;;;12.90;82.50;;;;;;4990115;28;20033;-67
2023/10/16 13:06:56;;;;;;;0.47;0.30;;;12.90;81.90;;;;;;5007329;28;20530;-68
2023/10/16 13:09:23;;;;;;;1.30;0.20;;;12.90;81.60;;;;;;5001666;28;20042;-68
2023/10/16 13:11:50;;;;;;;3.60;0.20;;;12.80;79.90;;;;;;4997530;28;20026;-67
2023/10/16 13:14:18;;;;;;;1.17;0.30;;;12.70;80.00;;;;;;5006523;28;20109;-66
2023/10/16 13:16:53;;;;;;;0.82;0.30;;;12.70;78.30;;;;;;4994385;28;20026;-66
2023/10/16 13:19:21;;;;;;;1.95;0.52;;;12.80;77.30;;;;;;4997728;28;20022;-66
2023/10/16 13:21:51;;;;;;;0.82;0.17;;;12.70;75.50;;;;;;5001377;28;20103;-65
2023/10/16 13:24:23;;;;;;;3.20;0.63;;;12.70;74.50;;;;;;4992222;28;20061;-67
2023/10/16 13:26:52;;;;;;;2.20;0.30;;;12.70;74.00;;;;;;4994721;28;20085;-67
2023/10/16 13:29:20;;;;;;;0.85;0.13;;;12.70;72.10;;;;;;5005183;28;20531;-67
2023/10/16 13:31:48;;;;;;;2.30;0.47;;;12.70;70.80;;;;;;4995243;28;20483;-67
2023/10/16 13:34:17;;;;;;;3.17;0.40;;;12.80;70.40;;;;;;5001402;28;20603;-68
2023/10/16 13:37:01;;;;;;;0.98;0.25;;;12.70;69.10;;;;;;4997230;28;20550;-67
2023/10/16 13:39:32;;;;;;;1.75;0.30;;;12.80;68.80;;;;;;4998280;28;20085;-67
2023/10/16 13:42:00;;;;;;;1.27;0.40;;;12.80;66.80;;;;;;5011064;28;20049;-67
2023/10/16 13:44:29;;;;;;;2.15;0.40;;;12.80;66.00;;;;;;4995980;28;20034;-66
2023/10/16 13:46:59;;;;;;;6.53;0.50;;;12.80;65.60;;;;;;5001710;28;20487;-66
2023/10/16 13:49:28;;;;;;;1.50;0.28;;;12.80;64.50;;;;;;4995966;28;20030;-67
2023/10/16 13:51:57;;;;;;;3.08;0.40;;;12.80;63.80;;;;;;5001245;28;20034;-67
2023/10/16 13:54:24;;;;;;;1.17;0.28;;;12.80;63.30;;;;;;5004109;28;20058;-68
2023/10/16 13:56:52;;;;;;;1.42;0.30;;;12.70;63.30;;;;;;4994100;28;20040;-67
2023/10/16 13:59:19;;;;;;;1.15;0.30;;;12.70;62.70;;;;;;5007008;28;20041;-67
2023/10/16 14:01:46;;;;;;;3.15;1.20;;;12.70;62.50;;;;;;4994085;28;20026;-67
2023/10/16 14:04:15;;;;;;;0.63;0.22;;;12.60;61.80;;;;;;4999048;28;20141;-67
2023/10/16 14:06:55;;;;;;;3.13;0.30;;;12.70;61.30;;;;;;4997064;28;20473;-67
2023/10/16 14:09:32;;;;;;;0.82;0.30;;;12.70;61.10;;;;;;5000470;28;20040;-66
2023/10/16 14:12:01;;;;;;;1.00;0.25;;;12.70;60.40;;;;;;4998274;28;20050;-68
2023/10/16 14:14:33;;;;;;;1.05;0.40;;;12.70;59.60;;;;;;4993746;28;20023;-68
2023/10/16 14:17:03;;;;;;;3.00;0.40;;;12.70;59.10;;;;;;4981349;28;20467;-67
2023/10/16 14:19:32;;;;;;;2.70;0.40;;;12.70;58.90;;;;;;5010530;28;20033;-67
2023/10/16 14:22:01;;;;;;;2.28;0.50;;;12.70;58.80;;;;;;5005030;28;20034;-68
2023/10/16 14:24:29;;;;;;;2.88;0.38;;;12.60;58.60;;;;;;5010573;28;20041;-67
2023/10/16 14:26:58;;;;;;;3.47;0.82;;;12.60;58.20;;;;;;5014252;28;20033;-67
2023/10/16 14:29:26;;;;;;;3.90;0.47;;;12.60;58.10;;;;;;5009899;28;20033;-67
2023/10/16 14:31:58;;;;;;;1.88;0.20;;;12.60;57.60;;;;;;5009998;28;20046;-67
2023/10/16 14:34:26;;;;;;;3.08;0.50;;;12.50;57.70;;;;;;5004273;28;20087;-67
2023/10/16 14:36:55;;;;;;;3.75;0.40;;;12.50;57.30;;;;;;5009657;28;20050;-69
2023/10/16 14:39:27;;;;;;;9.52;0.55;;;12.50;57.50;;;;;;5009097;28;20041;-68
2023/10/16 14:42:01;;;;;;;2.03;0.43;;;12.50;57.50;;;;;;4994511;28;20088;-69
2023/10/16 14:44:29;;;;;;;2.83;0.50;;;12.50;56.90;;;;;;4993266;28;20121;-67
2023/10/16 14:46:56;;;;;;;1.75;0.47;;;12.50;56.90;;;;;;4997173;28;20049;-68
2023/10/16 14:49:25;;;;;;;;;;;12.50;57.20;;;;;;5007368;28;20475;-67
2023/10/16 14:51:54;;;;;;;3.22;0.30;;;12.50;57.20;;;;;;4998865;28;19910;-67
2023/10/16 14:54:25;;;;;;;3.05;0.50;;;12.40;57.20;;;;;;4993953;28;20021;-66
2023/10/16 14:56:54;;;;;;;1.90;0.47;;;12.40;57.20;;;;;;5012113;28;20021;-67
2023/10/16 14:59:38;;;;;;;2.40;0.52;;;12.40;56.90;;;;;;4993349;28;20492;-68
2023/10/16 15:02:07;;;;;;;2.00;0.50;;;12.40;57.50;;;;;;4996060;28;20030;-67
2023/10/16 15:04:34;;;;;;;2.20;0.50;;;12.40;57.10;;;;;;5013183;28;20057;-66
2023/10/16 15:07:04;;;;;;;;;;;12.50;57.30;;;;;;5013999;28;20458;-68
2023/10/16 15:09:31;;;;;;;3.67;0.75;;;12.40;57.50;;;;;;5005750;28;19909;-66
2023/10/16 15:12:03;;;;;;;2.30;0.70;;;12.30;57.90;;;;;;4988074;28;20058;-67
2023/10/16 15:14:31;;;;;;;1.10;0.38;;;12.30;58.00;;;;;;4993726;28;20023;-67
2023/10/16 15:16:57;;;;;;;;;;;12.20;57.90;;;;;;4994244;28;20109;-67
2023/10/16 15:19:26;;;;;;;4.03;0.55;;;12.20;58.40;;;;;;5002048;28;20318;-67
2023/10/16 15:21:54;;;;;;;3.40;0.50;;;12.20;58.20;;;;;;5013230;28;20127;-67
2023/10/16 15:24:22;;;;;;;3.38;0.50;;;12.20;58.40;;;;;;5011078;28;20034;-67
2023/10/16 15:26:49;;;;;;;2.50;0.50;;;12.10;58.60;;;;;;5010936;28;20038;-67
2023/10/16 15:29:16;;;;;;;1.63;0.50;;;12.20;58.70;;;;;;5000482;28;20049;-66
2023/10/16 15:31:43;;;;;;;;;;;12.20;58.80;;;;;;4994541;28;20053;-67
2023/10/16 15:34:10;;;;;;;3.55;0.63;;;12.20;59.20;;;;;;4995371;28;19917;-68
2023/10/16 15:36:37;;;;;;;;;;;12.10;59.50;;;;;;4993798;28;20057;-66
2023/10/16 15:39:04;;;;;;;5.25;0.90;;;12.10;59.10;;;;;;4996612;28;19924;-65
2023/10/16 15:41:32;;;;;;;7.85;0.93;;;12.10;59.40;;;;;;5005793;28;20116;-66